sensor_id;sensor_type;location;lat;lon;timestamp;pressure;altitude;pressure_sealevel;temperature;humidity
83308;BME280;73223;48.584;13.460;2024-02-16T00:02:06;96913.06;;;6.66;100.00
83308;BME280;73223;48.584;13.460;2024-02-16T00:04:31;96912.97;;;6.75;100.00
83308;BME280;73223;48.584;13.460;2024-02-16T00:06:57;96901.81;;;6.74;100.00
83308;BME280;73223;48.584;13.460;2024-02-16T00:09:22;96902.00;;;6.60;100.00
83308;BME280;73223;48.584;13.460;2024-02-16T00:11:47;96904.47;;;6.68;100.00
83308;BME280;73223;48.584;13.460;2024-02-16T00:14:15;96915.28;;;6.30;100.00
83308;BME280;73223;48.584;13.460;2024-02-16T00:16:40;96908.28;;;6.41;100.00
83308;BME280;73223;48.584;13.460;2024-02-16T00:19:06;96901.22;;;6.55;100.00
83308;BME280;73223;48.584;13.460;2024-02-16T00:21:31;96903.66;;;6.65;100.00
83308;BME280;73223;48.584;13.460;2024-02-16T00:23:56;96897.88;;;6.47;100.00
83308;BME280;73223;48.584;13.460;2024-02-16T00:26:21;96901.88;;;6.07;100.00
83308;BME280;73223;48.584;13.460;2024-02-16T00:28:48;96899.38;;;6.01;100.00
83308;BME280;73223;48.584;13.460;2024-02-16T00:31:13;96896.16;;;6.48;100.00
83308;BME280;73223;48.584;13.460;2024-02-16T00:33:38;96892.94;;;6.34;100.00
83308;BME280;73223;48.584;13.460;2024-02-16T00:36:04;96887.66;;;6.44;100.00
83308;BME280;73223;48.584;13.460;2024-02-16T00:38:29;96884.13;;;6.50;100.00
83308;BME280;73223;48.584;13.460;2024-02-16T00:40:54;96879.28;;;6.28;100.00
83308;BME280;73223;48.584;13.460;2024-02-16T00:43:20;96886.09;;;6.33;100.00
83308;BME280;73223;48.584;13.460;2024-02-16T00:45:45;96875.91;;;6.25;100.00
83308;BME280;73223;48.584;13.460;2024-02-16T00:48:11;96879.28;;;6.27;100.00
83308;BME280;73223;48.584;13.460;2024-02-16T00:50:36;96874.13;;;6.27;100.00
83308;BME280;73223;48.584;13.460;2024-02-16T00:53:02;96878.38;;;6.33;100.00
83308;BME280;73223;48.584;13.460;2024-02-16T00:55:28;96880.19;;;6.26;100.00
83308;BME280;73223;48.584;13.460;2024-02-16T00:57:53;96870.78;;;6.23;100.00
83308;BME280;73223;48.584;13.460;2024-02-16T01:00:18;96858.88;;;6.15;100.00
83308;BME280;73223;48.584;13.460;2024-02-16T01:02:45;96875.34;;;6.03;100.00
83308;BME280;73223;48.584;13.460;2024-02-16T01:05:10;96875.34;;;6.02;100.00
83308;BME280;73223;48.584;13.460;2024-02-16T01:07:36;96883.22;;;5.88;100.00
83308;BME280;73223;48.584;13.460;2024-02-16T01:10:01;96881.50;;;5.90;100.00
83308;BME280;73223;48.584;13.460;2024-02-16T01:12:28;96875.31;;;6.05;100.00
83308;BME280;73223;48.584;13.460;2024-02-16T01:14:56;96873.63;;;6.04;100.00
83308;BME280;73223;48.584;13.460;2024-02-16T01:17:21;96874.19;;;6.25;100.00
83308;BME280;73223;48.584;13.460;2024-02-16T01:19:46;96873.47;;;6.13;100.00
83308;BME280;73223;48.584;13.460;2024-02-16T01:22:12;96877.78;;;6.11;100.00
83308;BME280;73223;48.584;13.460;2024-02-16T01:24:37;96879.78;;;5.90;100.00
83308;BME280;73223;48.584;13.460;2024-02-16T01:27:03;96876.25;;;5.96;100.00
83308;BME280;73223;48.584;13.460;2024-02-16T01:29:28;96863.19;;;6.13;100.00
83308;BME280;73223;48.584;13.460;2024-02-16T01:31:53;96862.34;;;6.11;100.00
83308;BME280;73223;48.584;13.460;2024-02-16T01:34:19;96866.06;;;5.87;100.00
83308;BME280;73223;48.584;13.460;2024-02-16T01:36:44;96871.03;;;6.04;100.00
83308;BME280;73223;48.584;13.460;2024-02-16T01:39:09;96865.84;;;6.07;100.00
83308;BME280;73223;48.584;13.460;2024-02-16T01:41:38;96856.28;;;6.15;100.00
83308;BME280;73223;48.584;13.460;2024-02-16T01:44:03;96859.66;;;6.21;100.00
83308;BME280;73223;48.584;13.460;2024-02-16T01:46:29;96855.44;;;6.14;100.00
83308;BME280;73223;48.584;13.460;2024-02-16T01:48:55;96854.63;;;6.11;100.00
83308;BME280;73223;48.584;13.460;2024-02-16T01:51:23;96860.75;;;6.04;100.00
83308;BME280;73223;48.584;13.460;2024-02-16T01:53:49;96867.72;;;5.94;100.00
83308;BME280;73223;48.584;13.460;2024-02-16T01:56:15;96864.28;;;5.93;100.00
83308;BME280;73223;48.584;13.460;2024-02-16T01:58:40;96863.38;;;5.99;100.00
83308;BME280;73223;48.584;13.460;2024-02-16T02:01:06;96859.91;;;6.03;100.00
83308;BME280;73223;48.584;13.460;2024-02-16T02:03:31;96859.94;;;6.00;100.00
83308;BME280;73223;48.584;13.460;2024-02-16T02:05:57;96859.09;;;5.98;100.00
83308;BME280;73223;48.584;13.460;2024-02-16T02:08:22;96856.63;;;5.87;100.00
83308;BME280;73223;48.584;13.460;2024-02-16T02:10:48;96855.13;;;5.70;100.00
83308;BME280;73223;48.584;13.460;2024-02-16T02:13:14;96853.22;;;5.87;100.00
83308;BME280;73223;48.584;13.460;2024-02-16T02:15:40;96850.88;;;5.66;100.00
83308;BME280;73223;48.584;13.460;2024-02-16T02:18:05;96854.34;;;5.63;100.00
83308;BME280;73223;48.584;13.460;2024-02-16T02:20:30;96848.31;;;5.66;100.00
83308;BME280;73223;48.584;13.460;2024-02-16T02:22:56;96848.34;;;5.64;100.00
83308;BME280;73223;48.584;13.460;2024-02-16T02:25:21;96845.81;;;5.58;100.00
83308;BME280;73223;48.584;13.460;2024-02-16T02:27:46;96840.66;;;5.59;100.00
83308;BME280;73223;48.584;13.460;2024-02-16T02:30:12;96840.53;;;5.72;100.00
83308;BME280;73223;48.584;13.460;2024-02-16T02:32:37;96841.50;;;5.60;100.00
83308;BME280;73223;48.584;13.460;2024-02-16T02:35:02;96837.19;;;5.65;100.00
83308;BME280;73223;48.584;13.460;2024-02-16T02:37:29;96832.28;;;5.42;100.00
83308;BME280;73223;48.584;13.460;2024-02-16T02:39:54;96833.84;;;5.57;100.00
83308;BME280;73223;48.584;13.460;2024-02-16T02:42:20;96831.44;;;5.42;100.00
83308;BME280;73223;48.584;13.460;2024-02-16T02:44:45;96827.81;;;5.58;100.00
83308;BME280;73223;48.584;13.460;2024-02-16T02:47:15;96822.50;;;5.73;100.00
83308;BME280;73223;48.584;13.460;2024-02-16T02:49:41;96827.72;;;5.67;100.00
83308;BME280;73223;48.584;13.460;2024-02-16T02:52:07;96824.47;;;5.53;100.00
83308;BME280;73223;48.584;13.460;2024-02-16T02:54:32;96822.91;;;5.38;100.00
83308;BME280;73223;48.584;13.460;2024-02-16T02:56:57;96823.56;;;5.55;100.00
83308;BME280;73223;48.584;13.460;2024-02-16T02:59:23;96821.78;;;5.61;100.00
83308;BME280;73223;48.584;13.460;2024-02-16T03:01:48;96828.13;;;5.34;100.00
83308;BME280;73223;48.584;13.460;2024-02-16T03:04:13;96819.72;;;5.18;100.00
83308;BME280;73223;48.584;13.460;2024-02-16T03:06:38;96824.00;;;5.19;100.00
83308;BME280;73223;48.584;13.460;2024-02-16T03:09:04;96821.63;;;4.96;100.00
83308;BME280;73223;48.584;13.460;2024-02-16T03:11:29;96820.00;;;4.84;100.00
83308;BME280;73223;48.584;13.460;2024-02-16T03:13:54;96810.31;;;5.15;100.00
83308;BME280;73223;48.584;13.460;2024-02-16T03:16:19;96812.00;;;5.19;100.00
83308;BME280;73223;48.584;13.460;2024-02-16T03:18:45;96811.16;;;5.17;100.00
83308;BME280;73223;48.584;13.460;2024-02-16T03:21:14;96803.47;;;5.14;100.00
83308;BME280;73223;48.584;13.460;2024-02-16T03:23:42;96799.25;;;5.07;100.00
83308;BME280;73223;48.584;13.460;2024-02-16T03:26:19;96799.28;;;5.06;100.00
83308;BME280;73223;48.584;13.460;2024-02-16T03:28:45;96807.75;;;5.14;100.00
83308;BME280;73223;48.584;13.460;2024-02-16T03:33:40;96812.31;;;4.86;100.00
83308;BME280;73223;48.584;13.460;2024-02-16T03:36:05;96816.50;;;4.95;100.00
83308;BME280;73223;48.584;13.460;2024-02-16T03:38:31;96816.34;;;5.13;100.00
83308;BME280;73223;48.584;13.460;2024-02-16T03:40:56;96821.44;;;5.17;100.00
83308;BME280;73223;48.584;13.460;2024-02-16T03:43:21;96813.75;;;5.13;100.00
83308;BME280;73223;48.584;13.460;2024-02-16T03:45:46;96818.97;;;5.07;100.00
83308;BME280;73223;48.584;13.460;2024-02-16T03:48:11;96815.53;;;5.08;100.00
83308;BME280;73223;48.584;13.460;2024-02-16T03:50:37;96824.09;;;5.07;100.00
83308;BME280;73223;48.584;13.460;2024-02-16T03:53:02;96830.09;;;5.06;100.00
83308;BME280;73223;48.584;13.460;2024-02-16T03:55:27;96830.28;;;4.84;100.00
83308;BME280;73223;48.584;13.460;2024-02-16T03:57:53;96819.13;;;4.90;100.00
83308;BME280;73223;48.584;13.460;2024-02-16T04:00:18;96820.75;;;4.99;100.00
83308;BME280;73223;48.584;13.460;2024-02-16T04:02:45;96824.25;;;4.88;100.00
83308;BME280;73223;48.584;13.460;2024-02-16T04:05:10;96828.56;;;4.86;100.00
83308;BME280;73223;48.584;13.460;2024-02-16T04:07:36;96832.13;;;4.69;100.00
83308;BME280;73223;48.584;13.460;2024-02-16T04:10:01;96838.91;;;4.82;100.00
83308;BME280;73223;48.584;13.460;2024-02-16T04:12:26;96836.25;;;4.88;100.00
83308;BME280;73223;48.584;13.460;2024-02-16T04:14:52;96836.38;;;4.73;100.00
83308;BME280;73223;48.584;13.460;2024-02-16T04:17:17;96843.22;;;4.74;100.00
83308;BME280;73223;48.584;13.460;2024-02-16T04:19:42;96844.81;;;4.87;100.00
83308;BME280;73223;48.584;13.460;2024-02-16T04:22:07;96843.97;;;4.86;100.00
83308;BME280;73223;48.584;13.460;2024-02-16T04:24:33;96846.59;;;4.80;100.00
83308;BME280;73223;48.584;13.460;2024-02-16T04:26:58;96847.41;;;4.84;100.00
83308;BME280;73223;48.584;13.460;2024-02-16T04:29:23;96849.97;;;4.85;100.00
83308;BME280;73223;48.584;13.460;2024-02-16T04:31:48;96845.59;;;4.97;100.00
83308;BME280;73223;48.584;13.460;2024-02-16T04:34:14;96847.19;;;5.10;100.00
83308;BME280;73223;48.584;13.460;2024-02-16T04:36:39;96841.50;;;4.74;100.00
83308;BME280;73223;48.584;13.460;2024-02-16T04:39:04;96843.75;;;5.12;100.00
83308;BME280;73223;48.584;13.460;2024-02-16T04:41:30;96842.94;;;5.07;100.00
83308;BME280;73223;48.584;13.460;2024-02-16T04:43:55;96831.72;;;5.16;100.00
83308;BME280;73223;48.584;13.460;2024-02-16T04:46:21;96837.63;;;5.24;100.00
83308;BME280;73223;48.584;13.460;2024-02-16T04:48:46;96841.88;;;5.27;100.00
83308;BME280;73223;48.584;13.460;2024-02-16T04:51:12;96830.91;;;5.11;100.00
83308;BME280;73223;48.584;13.460;2024-02-16T04:53:37;96834.34;;;5.11;100.00
83308;BME280;73223;48.584;13.460;2024-02-16T04:56:03;96835.41;;;4.84;100.00
83308;BME280;73223;48.584;13.460;2024-02-16T04:58:28;96836.69;;;4.32;100.00
83308;BME280;73223;48.584;13.460;2024-02-16T05:00:53;96836.41;;;4.70;100.00
83308;BME280;73223;48.584;13.460;2024-02-16T05:03:19;96841.78;;;4.41;100.00
83308;BME280;73223;48.584;13.460;2024-02-16T05:05:44;96850.97;;;4.68;100.00
83308;BME280;73223;48.584;13.460;2024-02-16T05:08:10;96844.22;;;4.56;100.00
83308;BME280;73223;48.584;13.460;2024-02-16T05:10:35;96843.25;;;4.68;100.00
83308;BME280;73223;48.584;13.460;2024-02-16T05:13:01;96838.97;;;4.71;100.00
83308;BME280;73223;48.584;13.460;2024-02-16T05:15:26;96845.22;;;4.35;100.00
83308;BME280;73223;48.584;13.460;2024-02-16T05:17:52;96845.28;;;4.29;100.00
83308;BME280;73223;48.584;13.460;2024-02-16T05:20:18;96830.53;;;4.56;100.00
83308;BME280;73223;48.584;13.460;2024-02-16T05:22:45;96841.88;;;4.26;100.00
83308;BME280;73223;48.584;13.460;2024-02-16T05:25:14;96839.09;;;4.54;100.00
83308;BME280;73223;48.584;13.460;2024-02-16T05:27:40;96838.22;;;4.60;100.00
83308;BME280;73223;48.584;13.460;2024-02-16T05:30:06;96840.75;;;4.65;100.00
83308;BME280;73223;48.584;13.460;2024-02-16T05:32:35;96847.66;;;4.50;100.00
83308;BME280;73223;48.584;13.460;2024-02-16T05:35:01;96846.69;;;4.67;100.00
83308;BME280;73223;48.584;13.460;2024-02-16T05:37:30;96844.13;;;4.67;100.00
83308;BME280;73223;48.584;13.460;2024-02-16T05:39:57;96842.44;;;4.66;100.00
83308;BME280;73223;48.584;13.460;2024-02-16T05:42:33;96845.84;;;4.66;100.00
83308;BME280;73223;48.584;13.460;2024-02-16T05:44:58;96845.19;;;4.43;100.00
83308;BME280;73223;48.584;13.460;2024-02-16T05:47:24;96846.91;;;4.41;100.00
83308;BME280;73223;48.584;13.460;2024-02-16T05:49:49;96848.00;;;3.99;100.00
83308;BME280;73223;48.584;13.460;2024-02-16T05:52:14;96842.72;;;4.25;100.00
83308;BME280;73223;48.584;13.460;2024-02-16T05:54:46;96853.88;;;4.22;100.00
83308;BME280;73223;48.584;13.460;2024-02-16T05:57:12;96845.25;;;4.31;100.00
83308;BME280;73223;48.584;13.460;2024-02-16T05:59:38;96852.88;;;4.43;100.00
83308;BME280;73223;48.584;13.460;2024-02-16T06:02:04;96853.09;;;4.11;100.00
83308;BME280;73223;48.584;13.460;2024-02-16T06:04:30;96854.75;;;4.15;100.00
83308;BME280;73223;48.584;13.460;2024-02-16T06:06:56;96854.78;;;4.12;100.00
83308;BME280;73223;48.584;13.460;2024-02-16T06:09:21;96857.28;;;4.19;100.00
83308;BME280;73223;48.584;13.460;2024-02-16T06:11:46;96859.00;;;4.19;100.00
83308;BME280;73223;48.584;13.460;2024-02-16T06:14:11;96866.59;;;4.34;100.00
83308;BME280;73223;48.584;13.460;2024-02-16T06:16:37;96870.88;;;4.38;100.00
83308;BME280;73223;48.584;13.460;2024-02-16T06:19:02;96871.75;;;4.34;100.00
83308;BME280;73223;48.584;13.460;2024-02-16T06:21:27;96885.44;;;4.32;100.00
83308;BME280;73223;48.584;13.460;2024-02-16T06:23:52;96882.06;;;4.30;100.00
83308;BME280;73223;48.584;13.460;2024-02-16T06:26:18;96889.78;;;4.24;100.00
83308;BME280;73223;48.584;13.460;2024-02-16T06:28:43;96882.00;;;4.36;100.00
83308;BME280;73223;48.584;13.460;2024-02-16T06:31:08;96894.91;;;4.27;100.00
83308;BME280;73223;48.584;13.460;2024-02-16T06:33:33;96891.50;;;4.20;100.00
83308;BME280;73223;48.584;13.460;2024-02-16T06:35:59;96894.09;;;4.12;100.00
83308;BME280;73223;48.584;13.460;2024-02-16T06:38:24;96902.63;;;4.21;100.00
83308;BME280;73223;48.584;13.460;2024-02-16T06:40:49;96907.81;;;4.08;100.00
83308;BME280;73223;48.584;13.460;2024-02-16T06:43:14;96905.25;;;4.10;100.00
83308;BME280;73223;48.584;13.460;2024-02-16T06:45:40;96911.25;;;4.06;100.00
83308;BME280;73223;48.584;13.460;2024-02-16T06:48:05;96918.00;;;4.24;100.00
83308;BME280;73223;48.584;13.460;2024-02-16T06:50:31;96913.78;;;4.12;100.00
83308;BME280;73223;48.584;13.460;2024-02-16T06:52:56;96917.06;;;4.34;100.00
83308;BME280;73223;48.584;13.460;2024-02-16T06:55:21;96919.66;;;4.31;100.00
83308;BME280;73223;48.584;13.460;2024-02-16T06:57:47;96921.34;;;4.35;100.00
83308;BME280;73223;48.584;13.460;2024-02-16T07:00:12;96929.78;;;4.60;100.00
83308;BME280;73223;48.584;13.460;2024-02-16T07:02:38;96936.63;;;4.54;100.00
83308;BME280;73223;48.584;13.460;2024-02-16T07:05:04;96939.09;;;4.71;100.00
83308;BME280;73223;48.584;13.460;2024-02-16T07:07:29;96931.25;;;4.89;100.00
83308;BME280;73223;48.584;13.460;2024-02-16T07:09:54;96936.31;;;5.02;100.00
83308;BME280;73223;48.584;13.460;2024-02-16T07:12:20;96933.06;;;4.80;100.00
83308;BME280;73223;48.584;13.460;2024-02-16T07:14:46;96936.50;;;4.77;100.00
83308;BME280;73223;48.584;13.460;2024-02-16T07:17:15;96931.34;;;4.79;100.00
83308;BME280;73223;48.584;13.460;2024-02-16T07:19:40;96931.34;;;4.80;100.00
83308;BME280;73223;48.584;13.460;2024-02-16T07:22:05;96934.53;;;5.13;100.00
83308;BME280;73223;48.584;13.460;2024-02-16T07:24:35;96939.81;;;4.93;100.00
83308;BME280;73223;48.584;13.460;2024-02-16T07:27:00;96945.09;;;4.69;100.00
83308;BME280;73223;48.584;13.460;2024-02-16T07:29:26;96938.84;;;5.03;100.00
83308;BME280;73223;48.584;13.460;2024-02-16T07:31:53;96935.47;;;5.01;100.00
83308;BME280;73223;48.584;13.460;2024-02-16T07:34:18;96939.69;;;5.07;100.00
83308;BME280;73223;48.584;13.460;2024-02-16T07:36:44;96936.50;;;4.79;100.00
83308;BME280;73223;48.584;13.460;2024-02-16T07:39:10;96942.28;;;5.05;100.00
83308;BME280;73223;48.584;13.460;2024-02-16T07:41:37;96941.19;;;5.35;100.00
83308;BME280;73223;48.584;13.460;2024-02-16T07:44:02;96949.84;;;5.20;100.00
83308;BME280;73223;48.584;13.460;2024-02-16T07:46:27;96946.34;;;5.34;100.00
83308;BME280;73223;48.584;13.460;2024-02-16T07:48:53;96948.09;;;5.27;100.00
83308;BME280;73223;48.584;13.460;2024-02-16T07:51:18;96947.09;;;5.43;100.00
83308;BME280;73223;48.584;13.460;2024-02-16T07:53:43;96934.31;;;5.36;100.00
83308;BME280;73223;48.584;13.460;2024-02-16T07:56:11;96936.81;;;5.42;100.00
83308;BME280;73223;48.584;13.460;2024-02-16T07:58:36;96945.69;;;5.09;100.00
83308;BME280;73223;48.584;13.460;2024-02-16T08:01:02;96933.41;;;5.38;100.00
83308;BME280;73223;48.584;13.460;2024-02-16T08:03:27;96944.53;;;5.42;100.00
83308;BME280;73223;48.584;13.460;2024-02-16T08:05:53;96941.97;;;5.39;100.00
83308;BME280;73223;48.584;13.460;2024-02-16T08:08:18;96940.31;;;6.20;100.00
83308;BME280;73223;48.584;13.460;2024-02-16T08:10:43;96947.25;;;6.11;100.00
83308;BME280;73223;48.584;13.460;2024-02-16T08:13:09;96947.56;;;6.55;100.00
83308;BME280;73223;48.584;13.460;2024-02-16T08:15:35;96948.84;;;6.85;100.00
83308;BME280;73223;48.584;13.460;2024-02-16T08:18:00;96944.56;;;6.86;100.00
83308;BME280;73223;48.584;13.460;2024-02-16T08:20:25;96944.50;;;6.90;100.00
83308;BME280;73223;48.584;13.460;2024-02-16T08:22:51;96945.69;;;6.67;100.00
83308;BME280;73223;48.584;13.460;2024-02-16T08:25:16;96943.72;;;6.84;100.00
83308;BME280;73223;48.584;13.460;2024-02-16T08:27:41;96945.03;;;6.52;100.00
83308;BME280;73223;48.584;13.460;2024-02-16T08:30:07;96946.78;;;6.50;100.00
83308;BME280;73223;48.584;13.460;2024-02-16T08:32:34;96940.47;;;6.73;100.00
83308;BME280;73223;48.584;13.460;2024-02-16T08:34:59;96945.53;;;6.79;100.00
83308;BME280;73223;48.584;13.460;2024-02-16T08:37:24;96939.31;;;6.93;100.00
83308;BME280;73223;48.584;13.460;2024-02-16T08:39:50;96936.19;;;7.27;100.00
83308;BME280;73223;48.584;13.460;2024-02-16T08:42:15;96944.28;;;7.04;100.00
83308;BME280;73223;48.584;13.460;2024-02-16T08:44:41;96943.72;;;7.38;100.00
83308;BME280;73223;48.584;13.460;2024-02-16T08:47:08;96948.72;;;7.48;100.00
83308;BME280;73223;48.584;13.460;2024-02-16T08:49:33;96948.72;;;7.48;100.00
83308;BME280;73223;48.584;13.460;2024-02-16T08:51:59;96941.06;;;8.36;100.00
83308;BME280;73223;48.584;13.460;2024-02-16T08:54:25;96945.44;;;8.73;100.00
83308;BME280;73223;48.584;13.460;2024-02-16T08:56:51;96938.19;;;8.88;100.00
83308;BME280;73223;48.584;13.460;2024-02-16T08:59:16;96940.31;;;9.10;100.00
83308;BME280;73223;48.584;13.460;2024-02-16T09:01:42;96939.84;;;9.28;100.00
83308;BME280;73223;48.584;13.460;2024-02-16T09:04:08;96948.66;;;9.55;100.00
83308;BME280;73223;48.584;13.460;2024-02-16T09:06:33;96942.66;;;9.53;100.00
83308;BME280;73223;48.584;13.460;2024-02-16T09:08:59;96952.84;;;9.93;100.00
83308;BME280;73223;48.584;13.460;2024-02-16T09:11:26;96954.03;;;9.81;100.00
83308;BME280;73223;48.584;13.460;2024-02-16T09:13:51;96952.19;;;10.17;100.00
83308;BME280;73223;48.584;13.460;2024-02-16T09:16:16;96943.72;;;10.72;100.00
83308;BME280;73223;48.584;13.460;2024-02-16T09:18:41;96947.28;;;10.06;100.00
83308;BME280;73223;48.584;13.460;2024-02-16T09:21:07;96946.66;;;10.60;100.00
83308;BME280;73223;48.584;13.460;2024-02-16T09:23:34;96947.94;;;10.15;100.00
83308;BME280;73223;48.584;13.460;2024-02-16T09:26:00;96955.00;;;9.77;100.00
83308;BME280;73223;48.584;13.460;2024-02-16T09:28:27;96954.53;;;9.61;100.00
83308;BME280;73223;48.584;13.460;2024-02-16T09:30:52;96959.34;;;9.75;100.00
83308;BME280;73223;48.584;13.460;2024-02-16T09:33:20;96961.56;;;9.89;100.00
83308;BME280;73223;48.584;13.460;2024-02-16T09:35:46;96963.34;;;10.52;100.00
83308;BME280;73223;48.584;13.460;2024-02-16T09:38:11;96961.34;;;9.98;100.00
83308;BME280;73223;48.584;13.460;2024-02-16T09:40:36;96954.19;;;10.97;100.00
83308;BME280;73223;48.584;13.460;2024-02-16T09:43:02;96964.56;;;10.69;100.00
83308;BME280;73223;48.584;13.460;2024-02-16T09:45:28;96972.06;;;11.06;100.00
83308;BME280;73223;48.584;13.460;2024-02-16T09:47:54;96975.81;;;10.96;100.00
83308;BME280;73223;48.584;13.460;2024-02-16T09:50:20;96971.84;;;11.40;100.00
83308;BME280;73223;48.584;13.460;2024-02-16T09:52:47;96986.69;;;11.09;100.00
83308;BME280;73223;48.584;13.460;2024-02-16T09:55:14;96979.75;;;11.90;100.00
83308;BME280;73223;48.584;13.460;2024-02-16T09:57:39;96967.13;;;12.76;100.00
83308;BME280;73223;48.584;13.460;2024-02-16T10:00:05;96969.13;;;12.69;100.00
83308;BME280;73223;48.584;13.460;2024-02-16T10:02:44;96963.44;;;13.27;100.00
83308;BME280;73223;48.584;13.460;2024-02-16T10:05:14;96970.00;;;13.37;100.00
83308;BME280;73223;48.584;13.460;2024-02-16T10:07:40;96965.56;;;13.81;100.00
83308;BME280;73223;48.584;13.460;2024-02-16T10:10:06;96972.03;;;13.93;100.00
83308;BME280;73223;48.584;13.460;2024-02-16T10:12:31;96971.63;;;14.63;100.00
83308;BME280;73223;48.584;13.460;2024-02-16T10:14:56;96984.22;;;13.28;100.00
83308;BME280;73223;48.584;13.460;2024-02-16T10:17:24;96973.47;;;14.40;100.00
83308;BME280;73223;48.584;13.460;2024-02-16T10:19:57;96977.34;;;14.89;100.00
83308;BME280;73223;48.584;13.460;2024-02-16T10:22:22;96969.28;;;14.75;100.00
83308;BME280;73223;48.584;13.460;2024-02-16T10:24:48;96967.69;;;13.93;100.00
83308;BME280;73223;48.584;13.460;2024-02-16T10:27:16;96973.34;;;14.23;100.00
83308;BME280;73223;48.584;13.460;2024-02-16T10:29:44;96967.84;;;13.03;100.00
83308;BME280;73223;48.584;13.460;2024-02-16T10:32:12;96966.91;;;14.11;100.00
83308;BME280;73223;48.584;13.460;2024-02-16T10:34:38;96974.72;;;14.32;100.00
83308;BME280;73223;48.584;13.460;2024-02-16T10:37:05;96966.16;;;14.28;100.00
83308;BME280;73223;48.584;13.460;2024-02-16T10:39:31;96968.25;;;12.92;100.00
83308;BME280;73223;48.584;13.460;2024-02-16T10:41:58;96960.63;;;14.15;100.00
83308;BME280;73223;48.584;13.460;2024-02-16T10:44:27;96961.88;;;14.27;100.00
83308;BME280;73223;48.584;13.460;2024-02-16T10:46:53;96950.47;;;14.50;97.73
83308;BME280;73223;48.584;13.460;2024-02-16T10:49:22;96949.03;;;15.18;97.97
83308;BME280;73223;48.584;13.460;2024-02-16T10:51:52;96954.59;;;14.34;100.00
83308;BME280;73223;48.584;13.460;2024-02-16T10:54:22;96959.97;;;15.07;98.82
83308;BME280;73223;48.584;13.460;2024-02-16T10:56:48;96953.78;;;15.46;90.90
83308;BME280;73223;48.584;13.460;2024-02-16T10:59:16;96951.47;;;15.04;90.96
83308;BME280;73223;48.584;13.460;2024-02-16T11:01:42;96957.63;;;15.75;87.71
83308;BME280;73223;48.584;13.460;2024-02-16T11:04:18;96948.84;;;16.27;81.95
83308;BME280;73223;48.584;13.460;2024-02-16T11:09:26;96944.56;;;14.84;90.71
83308;BME280;73223;48.584;13.460;2024-02-16T11:11:53;96945.63;;;14.20;100.00
83308;BME280;73223;48.584;13.460;2024-02-16T11:14:18;96944.69;;;14.81;100.00
83308;BME280;73223;48.584;13.460;2024-02-16T11:16:45;96943.22;;;16.01;83.68
83308;BME280;73223;48.584;13.460;2024-02-16T11:19:10;96935.84;;;16.09;85.36
83308;BME280;73223;48.584;13.460;2024-02-16T11:21:35;96935.63;;;16.63;76.91
83308;BME280;73223;48.584;13.460;2024-02-16T11:24:07;96928.53;;;14.54;100.00
83308;BME280;73223;48.584;13.460;2024-02-16T11:26:41;96930.97;;;15.49;92.75
83308;BME280;73223;48.584;13.460;2024-02-16T11:29:08;96939.16;;;15.60;90.23
83308;BME280;73223;48.584;13.460;2024-02-16T11:31:35;96934.25;;;16.06;81.56
83308;BME280;73223;48.584;13.460;2024-02-16T11:34:00;96939.94;;;14.70;100.00
83308;BME280;73223;48.584;13.460;2024-02-16T11:36:26;96928.94;;;14.45;100.00
83308;BME280;73223;48.584;13.460;2024-02-16T11:38:52;96928.41;;;15.84;79.61
83308;BME280;73223;48.584;13.460;2024-02-16T11:41:17;96933.19;;;15.76;83.52
83308;BME280;73223;48.584;13.460;2024-02-16T11:43:42;96937.38;;;15.61;82.23
83308;BME280;73223;48.584;13.460;2024-02-16T11:46:14;96932.84;;;15.99;81.07
83308;BME280;73223;48.584;13.460;2024-02-16T11:48:41;96931.66;;;16.72;76.66
83308;BME280;73223;48.584;13.460;2024-02-16T11:51:06;96934.06;;;16.26;73.61
83308;BME280;73223;48.584;13.460;2024-02-16T11:53:32;96942.69;;;15.77;72.51
83308;BME280;73223;48.584;13.460;2024-02-16T11:55:58;96933.66;;;14.55;73.26
83308;BME280;73223;48.584;13.460;2024-02-16T11:58:26;96933.25;;;15.74;72.14
83308;BME280;73223;48.584;13.460;2024-02-16T12:00:51;96930.19;;;16.66;66.51
83308;BME280;73223;48.584;13.460;2024-02-16T12:03:21;96925.28;;;16.60;63.66
83308;BME280;73223;48.584;13.460;2024-02-16T12:06:05;96917.47;;;17.08;61.48
83308;BME280;73223;48.584;13.460;2024-02-16T12:08:34;96914.09;;;16.41;63.46
83308;BME280;73223;48.584;13.460;2024-02-16T12:11:00;96914.09;;;16.08;63.02
83308;BME280;73223;48.584;13.460;2024-02-16T12:13:27;96910.41;;;17.55;59.61
83308;BME280;73223;48.584;13.460;2024-02-16T12:15:52;96916.50;;;17.40;56.87
83308;BME280;73223;48.584;13.460;2024-02-16T12:18:25;96918.66;;;16.53;58.68
83308;BME280;73223;48.584;13.460;2024-02-16T12:21:04;96913.09;;;17.69;56.85
83308;BME280;73223;48.584;13.460;2024-02-16T12:23:31;96911.03;;;17.29;56.55
83308;BME280;73223;48.584;13.460;2024-02-16T12:25:57;96909.00;;;17.80;54.88
83308;BME280;73223;48.584;13.460;2024-02-16T12:28:24;96912.16;;;18.15;54.19
83308;BME280;73223;48.584;13.460;2024-02-16T12:30:50;96912.53;;;17.64;54.27
83308;BME280;73223;48.584;13.460;2024-02-16T12:33:15;96908.72;;;18.57;52.46
83308;BME280;73223;48.584;13.460;2024-02-16T12:35:41;96909.75;;;19.24;51.16
83308;BME280;73223;48.584;13.460;2024-02-16T12:38:06;96905.53;;;18.52;50.84
83308;BME280;73223;48.584;13.460;2024-02-16T12:40:32;96897.75;;;18.50;50.86
83308;BME280;73223;48.584;13.460;2024-02-16T12:42:58;96908.25;;;19.20;47.50
83308;BME280;73223;48.584;13.460;2024-02-16T12:45:23;96900.19;;;18.53;50.86
83308;BME280;73223;48.584;13.460;2024-02-16T12:47:49;96906.09;;;19.53;51.18